sensor_id;sensor_type;location;lat;lon;timestamp;P1;durP1;ratioP1;P2;durP2;ratioP2
33254;SDS011;19623;52.482;9.762;2022-09-09T00:00:40;489.33;;;451.33;;
33254;SDS011;19623;52.482;9.762;2022-09-09T00:03:27;478.75;;;441.60;;
33254;SDS011;19623;52.482;9.762;2022-09-09T00:06:21;454.05;;;419.48;;
33254;SDS011;19623;52.482;9.762;2022-09-09T00:11:36;465.85;;;429.38;;
33254;SDS011;19623;52.482;9.762;2022-09-09T00:14:58;461.77;;;426.45;;
33254;SDS011;19623;52.482;9.762;2022-09-09T00:17:12;478.17;;;440.17;;
33254;SDS011;19623;52.482;9.762;2022-09-09T00:19:49;464.85;;;428.80;;
33254;SDS011;19623;52.482;9.762;2022-09-09T00:22:21;455.88;;;420.52;;
33254;SDS011;19623;52.482;9.762;2022-09-09T00:24:52;478.92;;;441.38;;
33254;SDS011;19623;52.482;9.762;2022-09-09T00:27:31;468.95;;;432.42;;
33254;SDS011;19623;52.482;9.762;2022-09-09T00:32:47;493.00;;;453.75;;
33254;SDS011;19623;52.482;9.762;2022-09-09T00:37:55;445.52;;;411.60;;
33254;SDS011;19623;52.482;9.762;2022-09-09T00:40:32;440.90;;;407.02;;
33254;SDS011;19623;52.482;9.762;2022-09-09T00:43:49;470.00;;;433.70;;
33254;SDS011;19623;52.482;9.762;2022-09-09T00:57:28;487.80;;;448.23;;
33254;SDS011;19623;52.482;9.762;2022-09-09T01:02:29;469.65;;;433.17;;
33254;SDS011;19623;52.482;9.762;2022-09-09T01:05:17;472.80;;;434.67;;
33254;SDS011;19623;52.482;9.762;2022-09-09T01:07:51;461.98;;;425.70;;
33254;SDS011;19623;52.482;9.762;2022-09-09T01:10:29;455.98;;;420.00;;
33254;SDS011;19623;52.482;9.762;2022-09-09T01:13:14;445.67;;;410.33;;
33254;SDS011;19623;52.482;9.762;2022-09-09T01:15:51;468.88;;;431.73;;
33254;SDS011;19623;52.482;9.762;2022-09-09T01:18:20;468.60;;;431.27;;
33254;SDS011;19623;52.482;9.762;2022-09-09T01:20:55;479.33;;;441.17;;
33254;SDS011;19623;52.482;9.762;2022-09-09T01:29:02;482.83;;;443.42;;
33254;SDS011;19623;52.482;9.762;2022-09-09T01:31:37;464.45;;;426.98;;
33254;SDS011;19623;52.482;9.762;2022-09-09T01:34:10;438.80;;;403.92;;
33254;SDS011;19623;52.482;9.762;2022-09-09T01:36:44;426.52;;;392.65;;
33254;SDS011;19623;52.482;9.762;2022-09-09T01:39:18;445.30;;;410.35;;
33254;SDS011;19623;52.482;9.762;2022-09-09T01:41:45;438.15;;;404.00;;
33254;SDS011;19623;52.482;9.762;2022-09-09T01:44:10;459.10;;;422.83;;
33254;SDS011;19623;52.482;9.762;2022-09-09T01:46:37;436.88;;;402.92;;
33254;SDS011;19623;52.482;9.762;2022-09-09T01:49:03;455.15;;;419.60;;
33254;SDS011;19623;52.482;9.762;2022-09-09T01:51:31;447.50;;;412.13;;
33254;SDS011;19623;52.482;9.762;2022-09-09T01:53:58;460.00;;;423.52;;
33254;SDS011;19623;52.482;9.762;2022-09-09T01:56:35;429.70;;;396.50;;
33254;SDS011;19623;52.482;9.762;2022-09-09T01:59:12;421.00;;;389.25;;
33254;SDS011;19623;52.482;9.762;2022-09-09T02:05:11;450.60;;;415.30;;
33254;SDS011;19623;52.482;9.762;2022-09-09T02:07:40;423.95;;;391.23;;
33254;SDS011;19623;52.482;9.762;2022-09-09T02:10:12;426.40;;;393.63;;
33254;SDS011;19623;52.482;9.762;2022-09-09T02:12:47;441.58;;;407.88;;
33254;SDS011;19623;52.482;9.762;2022-09-09T02:15:17;462.67;;;426.67;;
33254;SDS011;19623;52.482;9.762;2022-09-09T02:18:10;425.50;;;391.88;;
33254;SDS011;19623;52.482;9.762;2022-09-09T02:20:39;424.92;;;392.70;;
33254;SDS011;19623;52.482;9.762;2022-09-09T02:23:07;413.10;;;381.85;;
33254;SDS011;19623;52.482;9.762;2022-09-09T02:25:35;419.40;;;386.88;;
33254;SDS011;19623;52.482;9.762;2022-09-09T02:28:03;433.50;;;399.83;;
33254;SDS011;19623;52.482;9.762;2022-09-09T02:30:32;434.30;;;401.20;;
33254;SDS011;19623;52.482;9.762;2022-09-09T02:33:00;425.30;;;392.73;;
33254;SDS011;19623;52.482;9.762;2022-09-09T02:35:28;436.50;;;403.08;;
33254;SDS011;19623;52.482;9.762;2022-09-09T02:37:57;437.88;;;404.20;;
33254;SDS011;19623;52.482;9.762;2022-09-09T02:40:26;434.70;;;401.10;;
33254;SDS011;19623;52.482;9.762;2022-09-09T02:42:53;432.40;;;398.65;;
33254;SDS011;19623;52.482;9.762;2022-09-09T02:45:20;412.85;;;381.30;;
33254;SDS011;19623;52.482;9.762;2022-09-09T02:48:11;445.65;;;411.35;;
33254;SDS011;19623;52.482;9.762;2022-09-09T02:50:57;424.30;;;391.27;;
33254;SDS011;19623;52.482;9.762;2022-09-09T02:57:00;411.02;;;379.10;;
33254;SDS011;19623;52.482;9.762;2022-09-09T02:59:37;406.23;;;374.98;;
33254;SDS011;19623;52.482;9.762;2022-09-09T03:02:04;393.90;;;363.67;;
33254;SDS011;19623;52.482;9.762;2022-09-09T03:04:30;429.27;;;396.23;;
33254;SDS011;19623;52.482;9.762;2022-09-09T03:06:56;416.92;;;384.70;;
33254;SDS011;19623;52.482;9.762;2022-09-09T03:09:23;452.88;;;416.85;;
33254;SDS011;19623;52.482;9.762;2022-09-09T03:11:49;470.13;;;432.08;;
33254;SDS011;19623;52.482;9.762;2022-09-09T03:14:15;470.25;;;432.60;;
33254;SDS011;19623;52.482;9.762;2022-09-09T03:16:41;461.95;;;424.95;;
33254;SDS011;19623;52.482;9.762;2022-09-09T03:19:11;470.95;;;433.65;;
33254;SDS011;19623;52.482;9.762;2022-09-09T03:21:36;463.88;;;427.25;;
33254;SDS011;19623;52.482;9.762;2022-09-09T03:24:02;459.80;;;423.80;;
33254;SDS011;19623;52.482;9.762;2022-09-09T03:26:28;457.00;;;421.58;;
33254;SDS011;19623;52.482;9.762;2022-09-09T03:28:55;423.63;;;390.83;;
33254;SDS011;19623;52.482;9.762;2022-09-09T03:31:21;417.20;;;385.05;;
33254;SDS011;19623;52.482;9.762;2022-09-09T03:33:47;430.98;;;397.88;;
33254;SDS011;19623;52.482;9.762;2022-09-09T03:36:13;465.45;;;429.25;;
33254;SDS011;19623;52.482;9.762;2022-09-09T03:38:39;472.10;;;435.60;;
33254;SDS011;19623;52.482;9.762;2022-09-09T03:41:04;448.58;;;414.08;;
33254;SDS011;19623;52.482;9.762;2022-09-09T03:43:30;437.08;;;403.75;;
33254;SDS011;19623;52.482;9.762;2022-09-09T03:45:56;424.90;;;393.05;;
33254;SDS011;19623;52.482;9.762;2022-09-09T03:48:22;456.50;;;421.23;;
33254;SDS011;19623;52.482;9.762;2022-09-09T03:50:50;486.63;;;447.35;;
33254;SDS011;19623;52.482;9.762;2022-09-09T03:53:18;512.78;;;471.23;;
33254;SDS011;19623;52.482;9.762;2022-09-09T03:55:49;477.08;;;439.50;;
33254;SDS011;19623;52.482;9.762;2022-09-09T03:58:19;460.33;;;424.83;;
33254;SDS011;19623;52.482;9.762;2022-09-09T04:03:42;457.20;;;420.55;;
33254;SDS011;19623;52.482;9.762;2022-09-09T04:06:10;436.98;;;403.27;;
33254;SDS011;19623;52.482;9.762;2022-09-09T04:08:38;455.98;;;420.58;;
33254;SDS011;19623;52.482;9.762;2022-09-09T04:11:04;464.77;;;428.52;;
33254;SDS011;19623;52.482;9.762;2022-09-09T04:13:31;451.77;;;417.08;;
33254;SDS011;19623;52.482;9.762;2022-09-09T04:15:59;452.92;;;418.17;;
33254;SDS011;19623;52.482;9.762;2022-09-09T04:18:27;437.08;;;403.38;;
33254;SDS011;19623;52.482;9.762;2022-09-09T04:20:55;476.25;;;438.27;;
33254;SDS011;19623;52.482;9.762;2022-09-09T04:23:22;465.02;;;429.00;;
33254;SDS011;19623;52.482;9.762;2022-09-09T04:25:50;468.15;;;431.52;;
33254;SDS011;19623;52.482;9.762;2022-09-09T04:28:17;452.42;;;417.55;;
33254;SDS011;19623;52.482;9.762;2022-09-09T04:30:44;445.95;;;411.50;;
33254;SDS011;19623;52.482;9.762;2022-09-09T04:33:10;443.52;;;409.73;;
33254;SDS011;19623;52.482;9.762;2022-09-09T04:35:38;432.63;;;399.70;;
33254;SDS011;19623;52.482;9.762;2022-09-09T04:38:05;442.92;;;408.83;;
33254;SDS011;19623;52.482;9.762;2022-09-09T04:40:34;446.42;;;412.10;;
33254;SDS011;19623;52.482;9.762;2022-09-09T04:43:01;452.48;;;418.08;;
33254;SDS011;19623;52.482;9.762;2022-09-09T04:45:29;439.45;;;405.77;;
33254;SDS011;19623;52.482;9.762;2022-09-09T04:47:56;449.98;;;415.65;;
33254;SDS011;19623;52.482;9.762;2022-09-09T04:50:21;469.33;;;432.27;;
33254;SDS011;19623;52.482;9.762;2022-09-09T04:52:47;474.65;;;438.23;;
33254;SDS011;19623;52.482;9.762;2022-09-09T04:55:13;465.60;;;429.10;;
33254;SDS011;19623;52.482;9.762;2022-09-09T04:57:39;469.83;;;433.33;;
33254;SDS011;19623;52.482;9.762;2022-09-09T05:00:05;468.63;;;432.38;;
33254;SDS011;19623;52.482;9.762;2022-09-09T05:02:32;470.75;;;435.02;;
33254;SDS011;19623;52.482;9.762;2022-09-09T05:04:58;451.27;;;417.00;;
33254;SDS011;19623;52.482;9.762;2022-09-09T05:07:24;457.90;;;423.23;;
33254;SDS011;19623;52.482;9.762;2022-09-09T05:09:52;471.52;;;435.30;;
33254;SDS011;19623;52.482;9.762;2022-09-09T05:12:18;425.30;;;393.92;;
33254;SDS011;19623;52.482;9.762;2022-09-09T05:14:44;453.30;;;418.70;;
33254;SDS011;19623;52.482;9.762;2022-09-09T05:17:10;471.10;;;435.33;;
33254;SDS011;19623;52.482;9.762;2022-09-09T05:19:35;429.40;;;397.77;;
33254;SDS011;19623;52.482;9.762;2022-09-09T05:22:01;408.77;;;379.13;;
33254;SDS011;19623;52.482;9.762;2022-09-09T05:24:27;466.92;;;431.30;;
33254;SDS011;19623;52.482;9.762;2022-09-09T05:26:53;460.33;;;425.83;;
33254;SDS011;19623;52.482;9.762;2022-09-09T05:29:18;458.75;;;423.98;;
33254;SDS011;19623;52.482;9.762;2022-09-09T05:31:44;459.15;;;424.55;;
33254;SDS011;19623;52.482;9.762;2022-09-09T05:34:12;437.33;;;405.23;;
33254;SDS011;19623;52.482;9.762;2022-09-09T05:36:37;460.38;;;425.83;;
33254;SDS011;19623;52.482;9.762;2022-09-09T05:39:03;500.38;;;462.35;;
33254;SDS011;19623;52.482;9.762;2022-09-09T05:41:29;484.58;;;447.92;;
33254;SDS011;19623;52.482;9.762;2022-09-09T05:43:56;463.05;;;428.00;;
33254;SDS011;19623;52.482;9.762;2022-09-09T05:46:24;466.05;;;431.15;;
33254;SDS011;19623;52.482;9.762;2022-09-09T05:48:50;456.20;;;422.25;;
33254;SDS011;19623;52.482;9.762;2022-09-09T05:51:17;499.17;;;461.35;;
33254;SDS011;19623;52.482;9.762;2022-09-09T05:53:48;473.02;;;437.13;;
33254;SDS011;19623;52.482;9.762;2022-09-09T05:56:14;458.02;;;423.05;;
33254;SDS011;19623;52.482;9.762;2022-09-09T05:58:42;486.83;;;449.98;;
33254;SDS011;19623;52.482;9.762;2022-09-09T06:01:25;515.45;;;475.63;;
33254;SDS011;19623;52.482;9.762;2022-09-09T06:03:52;517.55;;;477.42;;
33254;SDS011;19623;52.482;9.762;2022-09-09T06:06:19;501.90;;;463.55;;
33254;SDS011;19623;52.482;9.762;2022-09-09T06:08:46;487.40;;;450.70;;
33254;SDS011;19623;52.482;9.762;2022-09-09T06:11:14;484.58;;;448.58;;
33254;SDS011;19623;52.482;9.762;2022-09-09T06:13:43;478.70;;;442.42;;
33254;SDS011;19623;52.482;9.762;2022-09-09T06:16:10;469.58;;;434.77;;
33254;SDS011;19623;52.482;9.762;2022-09-09T06:18:39;490.52;;;454.42;;
33254;SDS011;19623;52.482;9.762;2022-09-09T06:21:07;485.98;;;450.33;;
33254;SDS011;19623;52.482;9.762;2022-09-09T06:23:39;497.35;;;460.55;;
33254;SDS011;19623;52.482;9.762;2022-09-09T06:26:06;470.10;;;435.65;;
33254;SDS011;19623;52.482;9.762;2022-09-09T06:28:39;469.92;;;435.48;;
33254;SDS011;19623;52.482;9.762;2022-09-09T06:31:08;498.88;;;461.92;;
33254;SDS011;19623;52.482;9.762;2022-09-09T06:33:41;512.92;;;475.05;;
33254;SDS011;19623;52.482;9.762;2022-09-09T06:36:12;515.13;;;476.35;;
33254;SDS011;19623;52.482;9.762;2022-09-09T06:38:43;523.38;;;483.92;;
33254;SDS011;19623;52.482;9.762;2022-09-09T06:41:09;508.42;;;470.90;;
33254;SDS011;19623;52.482;9.762;2022-09-09T06:43:36;530.08;;;490.23;;
33254;SDS011;19623;52.482;9.762;2022-09-09T06:46:04;547.55;;;506.67;;
33254;SDS011;19623;52.482;9.762;2022-09-09T06:48:41;545.35;;;504.27;;
33254;SDS011;19623;52.482;9.762;2022-09-09T06:51:13;531.10;;;491.40;;
33254;SDS011;19623;52.482;9.762;2022-09-09T06:53:43;508.05;;;470.92;;
33254;SDS011;19623;52.482;9.762;2022-09-09T06:58:39;473.27;;;438.95;;
33254;SDS011;19623;52.482;9.762;2022-09-09T07:01:09;493.25;;;457.45;;
33254;SDS011;19623;52.482;9.762;2022-09-09T07:03:37;453.45;;;421.40;;
33254;SDS011;19623;52.482;9.762;2022-09-09T07:06:03;481.33;;;446.77;;
33254;SDS011;19623;52.482;9.762;2022-09-09T07:08:30;493.65;;;457.73;;
33254;SDS011;19623;52.482;9.762;2022-09-09T07:11:03;516.90;;;479.50;;
33254;SDS011;19623;52.482;9.762;2022-09-09T07:13:30;486.20;;;451.70;;
33254;SDS011;19623;52.482;9.762;2022-09-09T07:16:02;493.13;;;457.85;;
33254;SDS011;19623;52.482;9.762;2022-09-09T07:18:35;496.25;;;460.45;;
33254;SDS011;19623;52.482;9.762;2022-09-09T07:21:02;520.65;;;483.13;;
33254;SDS011;19623;52.482;9.762;2022-09-09T07:23:29;485.52;;;451.02;;
33254;SDS011;19623;52.482;9.762;2022-09-09T07:25:55;505.63;;;469.42;;
33254;SDS011;19623;52.482;9.762;2022-09-09T07:28:21;518.72;;;481.55;;
33254;SDS011;19623;52.482;9.762;2022-09-09T07:30:55;519.22;;;482.08;;
33254;SDS011;19623;52.482;9.762;2022-09-09T07:33:22;520.55;;;482.83;;
33254;SDS011;19623;52.482;9.762;2022-09-09T07:35:49;518.95;;;481.70;;
33254;SDS011;19623;52.482;9.762;2022-09-09T07:38:15;533.03;;;494.63;;
33254;SDS011;19623;52.482;9.762;2022-09-09T07:40:41;545.42;;;505.65;;
33254;SDS011;19623;52.482;9.762;2022-09-09T07:43:07;525.38;;;487.35;;
33254;SDS011;19623;52.482;9.762;2022-09-09T07:45:33;541.25;;;502.38;;
33254;SDS011;19623;52.482;9.762;2022-09-09T07:48:00;537.17;;;498.38;;
33254;SDS011;19623;52.482;9.762;2022-09-09T07:50:26;510.70;;;474.15;;
33254;SDS011;19623;52.482;9.762;2022-09-09T07:52:52;502.02;;;466.38;;
33254;SDS011;19623;52.482;9.762;2022-09-09T07:55:19;483.33;;;449.30;;
33254;SDS011;19623;52.482;9.762;2022-09-09T07:57:52;481.38;;;447.73;;
33254;SDS011;19623;52.482;9.762;2022-09-09T08:00:18;526.33;;;488.65;;
33254;SDS011;19623;52.482;9.762;2022-09-09T08:02:47;483.67;;;449.40;;
33254;SDS011;19623;52.482;9.762;2022-09-09T08:05:13;451.50;;;420.05;;
33254;SDS011;19623;52.482;9.762;2022-09-09T08:07:40;499.73;;;464.38;;
33254;SDS011;19623;52.482;9.762;2022-09-09T08:10:05;508.70;;;472.30;;
33254;SDS011;19623;52.482;9.762;2022-09-09T08:12:32;472.65;;;439.48;;
33254;SDS011;19623;52.482;9.762;2022-09-09T08:14:58;495.60;;;460.50;;
33254;SDS011;19623;52.482;9.762;2022-09-09T08:17:23;495.50;;;460.17;;
33254;SDS011;19623;52.482;9.762;2022-09-09T08:19:49;539.50;;;500.15;;
33254;SDS011;19623;52.482;9.762;2022-09-09T08:22:15;556.00;;;515.38;;
33254;SDS011;19623;52.482;9.762;2022-09-09T08:24:41;536.05;;;497.02;;
33254;SDS011;19623;52.482;9.762;2022-09-09T08:27:07;507.30;;;471.25;;
33254;SDS011;19623;52.482;9.762;2022-09-09T08:29:34;510.88;;;474.50;;
33254;SDS011;19623;52.482;9.762;2022-09-09T08:32:00;541.10;;;502.25;;
33254;SDS011;19623;52.482;9.762;2022-09-09T08:34:27;545.50;;;505.88;;
33254;SDS011;19623;52.482;9.762;2022-09-09T08:36:53;502.25;;;466.45;;
33254;SDS011;19623;52.482;9.762;2022-09-09T08:39:20;497.27;;;462.02;;
33254;SDS011;19623;52.482;9.762;2022-09-09T08:41:53;489.83;;;455.38;;
33254;SDS011;19623;52.482;9.762;2022-09-09T08:44:59;479.45;;;445.88;;
33254;SDS011;19623;52.482;9.762;2022-09-09T08:55:46;493.38;;;458.02;;
33254;SDS011;19623;52.482;9.762;2022-09-09T08:58:19;472.70;;;439.70;;
33254;SDS011;19623;52.482;9.762;2022-09-09T09:11:34;523.78;;;486.13;;
33254;SDS011;19623;52.482;9.762;2022-09-09T09:14:14;513.50;;;476.73;;
33254;SDS011;19623;52.482;9.762;2022-09-09T09:19:42;546.05;;;506.65;;
33254;SDS011;19623;52.482;9.762;2022-09-09T09:22:19;536.10;;;497.33;;
33254;SDS011;19623;52.482;9.762;2022-09-09T09:27:21;516.72;;;479.45;;
33254;SDS011;19623;52.482;9.762;2022-09-09T09:30:17;503.58;;;467.38;;
33254;SDS011;19623;52.482;9.762;2022-09-09T09:32:56;520.28;;;482.67;;
33254;SDS011;19623;52.482;9.762;2022-09-09T09:35:28;517.78;;;480.40;;
33254;SDS011;19623;52.482;9.762;2022-09-09T09:37:53;498.33;;;462.63;;
33254;SDS011;19623;52.482;9.762;2022-09-09T09:40:20;494.00;;;458.67;;
33254;SDS011;19623;52.482;9.762;2022-09-09T09:45:34;508.25;;;471.52;;
33254;SDS011;19623;52.482;9.762;2022-09-09T09:48:09;473.30;;;439.98;;
33254;SDS011;19623;52.482;9.762;2022-09-09T09:50:39;487.98;;;453.25;;
33254;SDS011;19623;52.482;9.762;2022-09-09T09:53:18;502.25;;;466.17;;
33254;SDS011;19623;52.482;9.762;2022-09-09T09:55:59;485.90;;;451.42;;
33254;SDS011;19623;52.482;9.762;2022-09-09T09:58:29;469.20;;;436.48;;
33254;SDS011;19623;52.482;9.762;2022-09-09T10:01:00;463.15;;;430.30;;
33254;SDS011;19623;52.482;9.762;2022-09-09T10:03:32;451.35;;;419.88;;
33254;SDS011;19623;52.482;9.762;2022-09-09T10:06:05;451.10;;;419.40;;
33254;SDS011;19623;52.482;9.762;2022-09-09T10:08:33;442.30;;;411.73;;
33254;SDS011;19623;52.482;9.762;2022-09-09T10:16:42;507.15;;;470.02;;
33254;SDS011;19623;52.482;9.762;2022-09-09T10:19:18;488.95;;;453.63;;
33254;SDS011;19623;52.482;9.762;2022-09-09T10:32:46;451.67;;;420.27;;
33254;SDS011;19623;52.482;9.762;2022-09-09T10:35:27;451.55;;;419.75;;
33254;SDS011;19623;52.482;9.762;2022-09-09T10:38:15;455.80;;;424.05;;
33254;SDS011;19623;52.482;9.762;2022-09-09T10:59:54;451.35;;;419.33;;
33254;SDS011;19623;52.482;9.762;2022-09-09T11:02:28;449.45;;;418.05;;
33254;SDS011;19623;52.482;9.762;2022-09-09T11:05:18;432.95;;;402.50;;
33254;SDS011;19623;52.482;9.762;2022-09-09T11:13:02;442.00;;;409.95;;
33254;SDS011;19623;52.482;9.762;2022-09-09T11:15:41;420.13;;;390.80;;
33254;SDS011;19623;52.482;9.762;2022-09-09T11:18:12;415.63;;;387.02;;
33254;SDS011;19623;52.482;9.762;2022-09-09T11:20:43;414.08;;;385.77;;
33254;SDS011;19623;52.482;9.762;2022-09-09T11:23:15;418.73;;;390.17;;
33254;SDS011;19623;52.482;9.762;2022-09-09T11:25:48;406.30;;;378.58;;
33254;SDS011;19623;52.482;9.762;2022-09-09T11:33:58;478.70;;;444.58;;
33254;SDS011;19623;52.482;9.762;2022-09-09T11:36:48;451.77;;;420.60;;
33254;SDS011;19623;52.482;9.762;2022-09-09T11:44:33;451.20;;;420.00;;
33254;SDS011;19623;52.482;9.762;2022-09-09T11:46:59;472.98;;;439.52;;
33254;SDS011;19623;52.482;9.762;2022-09-09T11:51:50;454.30;;;422.88;;
33254;SDS011;19623;52.482;9.762;2022-09-09T11:54:27;424.00;;;395.38;;
33254;SDS011;19623;52.482;9.762;2022-09-09T11:56:57;448.85;;;417.83;;
33254;SDS011;19623;52.482;9.762;2022-09-09T11:59:27;464.83;;;432.50;;
33254;SDS011;19623;52.482;9.762;2022-09-09T12:04:55;472.55;;;439.67;;
33254;SDS011;19623;52.482;9.762;2022-09-09T12:10:19;436.85;;;406.88;;
33254;SDS011;19623;52.482;9.762;2022-09-09T12:12:49;424.45;;;395.85;;
33254;SDS011;19623;52.482;9.762;2022-09-09T12:17:56;479.08;;;445.48;;
33254;SDS011;19623;52.482;9.762;2022-09-09T12:28:20;454.58;;;423.25;;
33254;SDS011;19623;52.482;9.762;2022-09-09T12:30:53;478.45;;;445.13;;
33254;SDS011;19623;52.482;9.762;2022-09-09T12:33:23;442.60;;;412.40;;
33254;SDS011;19623;52.482;9.762;2022-09-09T12:35:58;458.95;;;427.00;;
33254;SDS011;19623;52.482;9.762;2022-09-09T12:38:35;541.67;;;502.73;;
33254;SDS011;19623;52.482;9.762;2022-09-09T12:41:03;548.70;;;509.15;;
33254;SDS011;19623;52.482;9.762;2022-09-09T12:43:29;504.75;;;468.98;;
33254;SDS011;19623;52.482;9.762;2022-09-09T12:45:59;461.13;;;429.40;;
33254;SDS011;19623;52.482;9.762;2022-09-09T12:48:30;457.30;;;425.88;;
33254;SDS011;19623;52.482;9.762;2022-09-09T12:51:07;420.33;;;391.95;;
33254;SDS011;19623;52.482;9.762;2022-09-09T12:53:54;465.73;;;433.48;;
33254;SDS011;19623;52.482;9.762;2022-09-09T12:56:21;423.23;;;394.67;;
33254;SDS011;19623;52.482;9.762;2022-09-09T12:58:52;402.15;;;375.02;;
33254;SDS011;19623;52.482;9.762;2022-09-09T13:01:26;380.95;;;355.75;;
33254;SDS011;19623;52.482;9.762;2022-09-09T13:03:57;374.08;;;349.48;;
33254;SDS011;19623;52.482;9.762;2022-09-09T13:06:30;352.80;;;329.38;;
33254;SDS011;19623;52.482;9.762;2022-09-09T13:08:58;349.70;;;326.67;;
33254;SDS011;19623;52.482;9.762;2022-09-09T13:13:51;353.25;;;330.02;;
33254;SDS011;19623;52.482;9.762;2022-09-09T13:16:22;400.30;;;373.07;;
33254;SDS011;19623;52.482;9.762;2022-09-09T13:18:57;404.63;;;377.08;;
33254;SDS011;19623;52.482;9.762;2022-09-09T13:21:37;404.48;;;376.88;;
33254;SDS011;19623;52.482;9.762;2022-09-09T13:24:04;420.27;;;390.98;;
33254;SDS011;19623;52.482;9.762;2022-09-09T13:26:33;429.58;;;399.52;;
33254;SDS011;19623;52.482;9.762;2022-09-09T13:29:15;398.38;;;371.17;;
33254;SDS011;19623;52.482;9.762;2022-09-09T13:31:43;389.60;;;362.90;;
33254;SDS011;19623;52.482;9.762;2022-09-09T13:39:59;416.38;;;387.88;;
33254;SDS011;19623;52.482;9.762;2022-09-09T13:42:28;565.25;;;522.90;;
33254;SDS011;19623;52.482;9.762;2022-09-09T13:44:56;606.33;;;560.30;;
33254;SDS011;19623;52.482;9.762;2022-09-09T13:47:43;608.45;;;562.17;;
33254;SDS011;19623;52.482;9.762;2022-09-09T13:50:19;640.88;;;591.35;;
33254;SDS011;19623;52.482;9.762;2022-09-09T13:52:56;692.17;;;638.80;;
33254;SDS011;19623;52.482;9.762;2022-09-09T13:55:26;711.03;;;656.17;;
33254;SDS011;19623;52.482;9.762;2022-09-09T13:57:57;695.55;;;642.20;;
33254;SDS011;19623;52.482;9.762;2022-09-09T14:00:31;702.90;;;648.67;;
33254;SDS011;19623;52.482;9.762;2022-09-09T14:02:58;737.22;;;679.78;;
33254;SDS011;19623;52.482;9.762;2022-09-09T14:05:29;742.50;;;685.05;;
33254;SDS011;19623;52.482;9.762;2022-09-09T14:07:57;680.25;;;628.17;;
33254;SDS011;19623;52.482;9.762;2022-09-09T14:10:22;684.38;;;632.08;;
33254;SDS011;19623;52.482;9.762;2022-09-09T14:12:48;692.50;;;639.38;;
33254;SDS011;19623;52.482;9.762;2022-09-09T14:15:14;675.17;;;623.28;;
33254;SDS011;19623;52.482;9.762;2022-09-09T14:17:41;645.60;;;596.58;;
33254;SDS011;19623;52.482;9.762;2022-09-09T14:20:08;681.38;;;628.95;;
33254;SDS011;19623;52.482;9.762;2022-09-09T14:22:36;683.42;;;630.78;;
33254;SDS011;19623;52.482;9.762;2022-09-09T14:25:04;687.45;;;634.10;;
33254;SDS011;19623;52.482;9.762;2022-09-09T14:27:31;665.58;;;614.55;;
33254;SDS011;19623;52.482;9.762;2022-09-09T14:29:57;672.85;;;620.85;;
33254;SDS011;19623;52.482;9.762;2022-09-09T14:32:24;713.95;;;658.53;;
33254;SDS011;19623;52.482;9.762;2022-09-09T14:34:50;705.88;;;650.67;;
33254;SDS011;19623;52.482;9.762;2022-09-09T14:37:16;729.33;;;672.33;;
33254;SDS011;19623;52.482;9.762;2022-09-09T14:39:43;684.72;;;631.53;;
33254;SDS011;19623;52.482;9.762;2022-09-09T14:42:12;685.60;;;632.35;;
33254;SDS011;19623;52.482;9.762;2022-09-09T14:44:39;704.67;;;649.97;;
33254;SDS011;19623;52.482;9.762;2022-09-09T14:47:05;617.00;;;570.20;;
33254;SDS011;19623;52.482;9.762;2022-09-09T14:49:33;649.05;;;599.22;;
33254;SDS011;19623;52.482;9.762;2022-09-09T14:52:02;648.28;;;598.28;;
33254;SDS011;19623;52.482;9.762;2022-09-09T14:54:28;595.70;;;550.88;;
33254;SDS011;19623;52.482;9.762;2022-09-09T14:56:54;622.35;;;574.80;;
33254;SDS011;19623;52.482;9.762;2022-09-09T14:59:19;622.45;;;574.92;;
33254;SDS011;19623;52.482;9.762;2022-09-09T15:01:45;606.28;;;560.22;;
33254;SDS011;19623;52.482;9.762;2022-09-09T15:04:11;608.13;;;561.88;;
33254;SDS011;19623;52.482;9.762;2022-09-09T15:06:39;612.97;;;566.30;;
33254;SDS011;19623;52.482;9.762;2022-09-09T15:09:08;638.78;;;589.85;;
33254;SDS011;19623;52.482;9.762;2022-09-09T15:11:35;613.17;;;566.30;;
33254;SDS011;19623;52.482;9.762;2022-09-09T15:16:31;625.00;;;577.53;;
33254;SDS011;19623;52.482;9.762;2022-09-09T15:18:58;634.00;;;585.50;;
33254;SDS011;19623;52.482;9.762;2022-09-09T15:21:26;681.72;;;628.83;;
33254;SDS011;19623;52.482;9.762;2022-09-09T15:23:53;709.55;;;654.15;;
33254;SDS011;19623;52.482;9.762;2022-09-09T15:26:19;720.20;;;663.90;;
33254;SDS011;19623;52.482;9.762;2022-09-09T15:28:46;755.85;;;696.90;;
33254;SDS011;19623;52.482;9.762;2022-09-09T15:33:40;738.45;;;680.90;;
33254;SDS011;19623;52.482;9.762;2022-09-09T15:36:19;717.15;;;661.30;;
33254;SDS011;19623;52.482;9.762;2022-09-09T15:38:49;697.08;;;643.10;;
33254;SDS011;19623;52.482;9.762;2022-09-09T15:41:16;734.40;;;677.25;;
33254;SDS011;19623;52.482;9.762;2022-09-09T15:43:43;707.13;;;652.22;;
33254;SDS011;19623;52.482;9.762;2022-09-09T15:46:32;741.55;;;683.70;;
33254;SDS011;19623;52.482;9.762;2022-09-09T15:48:58;693.75;;;640.10;;
33254;SDS011;19623;52.482;9.762;2022-09-09T15:51:30;663.88;;;613.08;;
33254;SDS011;19623;52.482;9.762;2022-09-09T15:53:57;667.40;;;615.95;;
33254;SDS011;19623;52.482;9.762;2022-09-09T15:56:24;775.67;;;714.53;;
33254;SDS011;19623;52.482;9.762;2022-09-09T15:58:50;779.00;;;718.17;;
33254;SDS011;19623;52.482;9.762;2022-09-09T16:01:17;744.55;;;686.70;;
33254;SDS011;19623;52.482;9.762;2022-09-09T16:03:43;770.47;;;710.03;;
33254;SDS011;19623;52.482;9.762;2022-09-09T16:06:11;756.22;;;697.55;;
33254;SDS011;19623;52.482;9.762;2022-09-09T16:08:43;787.83;;;726.22;;
33254;SDS011;19623;52.482;9.762;2022-09-09T16:11:14;784.42;;;722.75;;
33254;SDS011;19623;52.482;9.762;2022-09-09T16:13:42;759.58;;;700.20;;
33254;SDS011;19623;52.482;9.762;2022-09-09T16:16:12;743.30;;;685.63;;
33254;SDS011;19623;52.482;9.762;2022-09-09T16:18:39;775.08;;;714.30;;
33254;SDS011;19623;52.482;9.762;2022-09-09T16:21:07;721.95;;;666.17;;
33254;SDS011;19623;52.482;9.762;2022-09-09T16:23:37;718.33;;;663.10;;
33254;SDS011;19623;52.482;9.762;2022-09-09T16:26:04;696.13;;;642.65;;
33254;SDS011;19623;52.482;9.762;2022-09-09T16:28:30;684.88;;;631.83;;
33254;SDS011;19623;52.482;9.762;2022-09-09T16:30:56;680.83;;;628.47;;
33254;SDS011;19623;52.482;9.762;2022-09-09T16:33:23;678.50;;;626.17;;
33254;SDS011;19623;52.482;9.762;2022-09-09T16:35:49;640.95;;;592.00;;
33254;SDS011;19623;52.482;9.762;2022-09-09T16:38:14;697.13;;;643.45;;
33254;SDS011;19623;52.482;9.762;2022-09-09T16:40:40;690.42;;;637.28;;
33254;SDS011;19623;52.482;9.762;2022-09-09T16:43:06;715.75;;;660.35;;